^^
Grace C. Lehan Memorial Weather Station Historical Data
Daily Summary for November 13, 2021 Units:  Both    English   Metric
Daily Weekly Monthly Yearly
  High: Low: Average:
Temperature: 62 °F /  16.7 °C 37.5 °F /  3.1 °C 46.1 °F /  7.8 °C
Dew Point: 51.8 °F /  11 °C 35.2 °F /  1.8 °C 41.9 °F /  5.5 °C
Humidity: 97% 47.1% 87%
Wind Speed: 11.7mph /  18.8km/h - 1.5mph /  2.4km/h
Wind Gust: 30mph /  48.3km/h - -
Wind- - WSW
Pressure: 29.90 in /  1012.4 hPa 29.47 in /  997.9 hPa -
Precipitation: 0.41 in /  10.41 mm    
 
 
Tabular Data for November 13, 2021
Time Temperature Dew Point Pressure Wind Wind Speed Wind Gust Humidity Rainfall Rate (Hourly) solar
00:04 44.8 °F /  7.1 °C 43.2 °F /  6.2 °C 29.89in /  1012.1hPa Calm     94% 0.00in /  0mm 0 W/m2
00:09 44.6 °F /  7 °C 43 °F /  6.1 °C 29.89in /  1012.1hPa Calm     94% 0.00in /  0mm 0 W/m2
00:14 44.4 °F /  6.9 °C 42.8 °F /  6 °C 29.89in /  1012.1hPa Calm     94% 0.00in /  0mm 0 W/m2
00:19 44.3 °F /  6.8 °C 42.6 °F /  5.9 °C 29.89in /  1012.1hPa Calm     94% 0.00in /  0mm 0 W/m2
00:24 44.2 °F /  6.8 °C 42.5 °F /  5.8 °C 29.89in /  1012.1hPa Calm     94% 0.00in /  0mm 0 W/m2
00:29 44 °F /  6.7 °C 42.5 °F /  5.8 °C 29.89in /  1012.1hPa Calm     94.3% 0.00in /  0mm 0 W/m2
00:34 44 °F /  6.7 °C 42.6 °F /  5.9 °C 29.89in /  1012.1hPa Calm     95% 0.00in /  0mm 0 W/m2
00:39 43.8 °F /  6.6 °C 42.5 °F /  5.8 °C 29.89in /  1012.1hPa Calm     94.9% 0.00in /  0mm 0 W/m2
00:44 43.7 °F /  6.5 °C 42.1 °F /  5.6 °C 29.89in /  1012.1hPa Calm     94.4% 0.00in /  0mm 0 W/m2
00:49 43.5 °F /  6.4 °C 41.9 °F /  5.5 °C 29.89in /  1012.1hPa Calm     94.2% 0.00in /  0mm 0 W/m2
00:54 43.4 °F /  6.3 °C 42 °F /  5.6 °C 29.89in /  1012.1hPa Calm     95% 0.00in /  0mm 0 W/m2
00:59 43.3 °F /  6.3 °C 41.9 °F /  5.5 °C 29.89in /  1012.1hPa Calm     95% 0.00in /  0mm 0 W/m2
01:04 43.2 °F /  6.2 °C 41.9 °F /  5.5 °C 29.89in /  1012.1hPa Calm     95% 0.00in /  0mm 0 W/m2
01:09 43.2 °F /  6.2 °C 41.9 °F /  5.5 °C 29.89in /  1012.1hPa Calm     95% 0.00in /  0mm 0 W/m2
01:14 43.1 °F /  6.2 °C 41.7 °F /  5.4 °C 29.89in /  1012.1hPa Calm     95% 0.00in /  0mm 0 W/m2
01:19 42.9 °F /  6.1 °C 41.6 °F /  5.3 °C 29.90in /  1012.4hPa Calm     95% 0.00in /  0mm 0 W/m2
01:24 42.7 °F /  5.9 °C 41.4 °F /  5.2 °C 29.89in /  1012.1hPa Calm     95% 0.00in /  0mm 0 W/m2
01:29 42.6 °F /  5.9 °C 41.3 °F /  5.2 °C 29.89in /  1012.1hPa Calm     95% 0.00in /  0mm 0 W/m2
01:34 42.5 °F /  5.8 °C 41.1 °F /  5.1 °C 29.89in /  1012.1hPa Calm     95% 0.00in /  0mm 0 W/m2
01:39 42.3 °F /  5.7 °C 41 °F /  5 °C 29.89in /  1012.1hPa Calm     95% 0.00in /  0mm 0 W/m2
01:44 42.2 °F /  5.7 °C 40.8 °F /  4.9 °C 29.89in /  1012.1hPa Calm     95% 0.00in /  0mm 0 W/m2
01:49 42 °F /  5.6 °C 40.7 °F /  4.8 °C 29.89in /  1012.1hPa Calm     95% 0.00in /  0mm 0 W/m2
01:54 41.9 °F /  5.5 °C 40.6 °F /  4.8 °C 29.89in /  1012.1hPa Calm     95% 0.00in /  0mm 0 W/m2
01:59 41.9 °F /  5.5 °C 40.5 °F /  4.7 °C 29.89in /  1012.1hPa Calm     95% 0.00in /  0mm 0 W/m2
02:04 41.7 °F /  5.4 °C 40.4 °F /  4.7 °C 29.89in /  1012.1hPa Calm     95% 0.00in /  0mm 0 W/m2
02:09 41.5 °F /  5.3 °C 40.2 °F /  4.6 °C 29.89in /  1012.1hPa Calm     95% 0.00in /  0mm 0 W/m2
02:14 41.4 °F /  5.2 °C 40 °F /  4.4 °C 29.88in /  1011.7hPa Calm     95% 0.00in /  0mm 0 W/m2
02:19 41.2 °F /  5.1 °C 39.9 °F /  4.4 °C 29.88in /  1011.7hPa Calm     95% 0.00in /  0mm 0 W/m2
02:24 41.1 °F /  5.1 °C 39.8 °F /  4.3 °C 29.88in /  1011.7hPa Calm     95% 0.00in /  0mm 0 W/m2
02:29 41 °F /  5 °C 39.7 °F /  4.3 °C 29.88in /  1011.7hPa Calm     95% 0.00in /  0mm 0 W/m2
02:34 40.9 °F /  4.9 °C 39.6 °F /  4.2 °C 29.88in /  1011.7hPa Calm     95% 0.00in /  0mm 0 W/m2
02:39 40.9 °F /  4.9 °C 39.6 °F /  4.2 °C 29.87in /  1011.4hPa Calm     95% 0.00in /  0mm 0 W/m2
02:44 40.8 °F /  4.9 °C 39.5 °F /  4.2 °C 29.87in /  1011.4hPa Calm     95% 0.00in /  0mm 0 W/m2
02:49 40.8 °F /  4.9 °C 39.5 °F /  4.2 °C 29.86in /  1011.1hPa Calm     95% 0.00in /  0mm 0 W/m2
02:54 40.8 °F /  4.9 °C 39.5 °F /  4.2 °C 29.86in /  1011.1hPa Calm     95% 0.00in /  0mm 0 W/m2
02:59 40.7 °F /  4.8 °C 39.4 °F /  4.1 °C 29.86in /  1011.1hPa Calm     95% 0.00in /  0mm 0 W/m2
03:04 40.6 °F /  4.8 °C 39.3 °F /  4.1 °C 29.86in /  1011.1hPa Calm     95% 0.00in /  0mm 0 W/m2
03:09 40.4 °F /  4.7 °C 39.1 °F /  3.9 °C 29.86in /  1011.1hPa Calm     95% 0.00in /  0mm 0 W/m2
03:14 40.3 °F /  4.6 °C 39 °F /  3.9 °C 29.86in /  1011.1hPa Calm     95% 0.00in /  0mm 0 W/m2
03:19 40.1 °F /  4.5 °C 38.8 °F /  3.8 °C 29.86in /  1011.1hPa Calm     95% 0.00in /  0mm 0 W/m2
03:24 40.2 °F /  4.6 °C 38.8 °F /  3.8 °C 29.86in /  1011.1hPa Calm     95% 0.00in /  0mm 0 W/m2
03:29 40.2 °F /  4.6 °C 38.9 °F /  3.8 °C 29.85in /  1010.7hPa Calm     95% 0.00in /  0mm 0 W/m2
03:34 40.2 °F /  4.6 °C 38.9 °F /  3.8 °C 29.86in /  1011.1hPa Calm     95% 0.00in /  0mm 0 W/m2
03:39 40.2 °F /  4.6 °C 38.9 °F /  3.8 °C 29.86in /  1011.1hPa Calm     95% 0.00in /  0mm 0 W/m2
03:44 40.2 °F /  4.6 °C 38.8 °F /  3.8 °C 29.85in /  1010.7hPa Calm     95% 0.00in /  0mm 0 W/m2
03:49 40 °F /  4.4 °C 38.7 °F /  3.7 °C 29.85in /  1010.7hPa Calm     95% 0.00in /  0mm 0 W/m2
03:54 39.9 °F /  4.4 °C 38.6 °F /  3.7 °C 29.86in /  1011.1hPa Calm     95% 0.00in /  0mm 0 W/m2
03:59 39.8 °F /  4.3 °C 38.5 °F /  3.6 °C 29.86in /  1011.1hPa Calm     95% 0.00in /  0mm 0 W/m2
04:09 39.7 °F /  4.3 °C 38.4 °F /  3.6 °C 29.87in /  1011.4hPa Calm     95% 0.00in /  0mm 0 W/m2
04:14 39.7 °F /  4.3 °C 38.4 °F /  3.6 °C 29.87in /  1011.4hPa Calm     95% 0.00in /  0mm 0 W/m2
04:19 39.8 °F /  4.3 °C 38.5 °F /  3.6 °C 29.87in /  1011.4hPa Calm     95% 0.00in /  0mm 0 W/m2
04:24 39.8 °F /  4.3 °C 38.5 °F /  3.6 °C 29.87in /  1011.4hPa Calm     95% 0.00in /  0mm 0 W/m2
04:29 39.8 °F /  4.3 °C 38.5 °F /  3.6 °C 29.87in /  1011.4hPa Calm     95% 0.00in /  0mm 0 W/m2
04:34 39.7 °F /  4.3 °C 38.4 °F /  3.6 °C 29.87in /  1011.4hPa Calm     95% 0.00in /  0mm 0 W/m2
04:39 39.6 °F /  4.2 °C 38.3 °F /  3.5 °C 29.87in /  1011.4hPa Calm     95% 0.00in /  0mm 0 W/m2
04:44 39.6 °F /  4.2 °C 38.5 °F /  3.6 °C 29.87in /  1011.4hPa Calm     95.8% 0.00in /  0mm 0 W/m2
04:49 39.5 °F /  4.2 °C 38.5 °F /  3.6 °C 29.87in /  1011.4hPa Calm     96% 0.00in /  0mm 0 W/m2
04:54 39.5 °F /  4.2 °C 38.4 °F /  3.6 °C 29.87in /  1011.4hPa Calm     96% 0.00in /  0mm 0 W/m2
04:59 39.4 °F /  4.1 °C 38.1 °F /  3.4 °C 29.87in /  1011.4hPa Calm     95.3% 0.00in /  0mm 0 W/m2
05:04 39.3 °F /  4.1 °C 38 °F /  3.3 °C 29.87in /  1011.4hPa Calm     95% 0.00in /  0mm 0 W/m2
05:09 39.3 °F /  4.1 °C 38 °F /  3.3 °C 29.88in /  1011.7hPa Calm     95% 0.00in /  0mm 0 W/m2
05:14 39.2 °F /  4 °C 37.9 °F /  3.3 °C 29.88in /  1011.7hPa Calm     95% 0.00in /  0mm 0 W/m2
05:19 39 °F /  3.9 °C 37.7 °F /  3.2 °C 29.88in /  1011.7hPa Calm     95% 0.00in /  0mm 0 W/m2
05:24 38.9 °F /  3.8 °C 37.6 °F /  3.1 °C 29.88in /  1011.7hPa Calm     95% 0.00in /  0mm 0 W/m2
05:29 38.8 °F /  3.8 °C 37.7 °F /  3.2 °C 29.88in /  1011.7hPa Calm     95.7% 0.00in /  0mm 0 W/m2
05:34 38.8 °F /  3.8 °C 37.5 °F /  3.1 °C 29.88in /  1011.7hPa Calm     95.1% 0.00in /  0mm 0 W/m2
05:39 38.7 °F /  3.7 °C 37.4 °F /  3 °C 29.87in /  1011.4hPa Calm     95% 0.00in /  0mm 0 W/m2
05:44 38.7 °F /  3.7 °C 37.4 °F /  3 °C 29.87in /  1011.4hPa Calm     95.1% 0.00in /  0mm 0 W/m2
05:49 38.6 °F /  3.7 °C 37.6 °F /  3.1 °C 29.87in /  1011.4hPa Calm     96% 0.00in /  0mm 0 W/m2
05:54 38.5 °F /  3.6 °C 37.5 °F /  3.1 °C 29.87in /  1011.4hPa Calm     96% 0.00in /  0mm 0 W/m2
05:59 38.5 °F /  3.6 °C 37.4 °F /  3 °C 29.87in /  1011.4hPa Calm     96% 0.00in /  0mm 0 W/m2
06:04 38.4 °F /  3.6 °C 37.4 °F /  3 °C 29.86in /  1011.1hPa Calm     96% 0.00in /  0mm 0 W/m2
06:09 38.4 °F /  3.6 °C 37.3 °F /  2.9 °C 29.86in /  1011.1hPa Calm     95.8% 0.00in /  0mm 0 W/m2
06:14 38.3 °F /  3.5 °C 37.1 °F /  2.8 °C 29.86in /  1011.1hPa Calm     95.5% 0.00in /  0mm 0 W/m2
06:19 38.2 °F /  3.4 °C 36.9 °F /  2.7 °C 29.86in /  1011.1hPa Calm     95.2% 0.00in /  0mm 0 W/m2
06:24 38 °F /  3.3 °C 36.7 °F /  2.6 °C 29.86in /  1011.1hPa Calm     95% 0.00in /  0mm 0 W/m2
06:29 37.8 °F /  3.2 °C 36.7 °F /  2.6 °C 29.86in /  1011.1hPa Calm     95.4% 0.00in /  0mm 0 W/m2
06:34 37.7 °F /  3.2 °C 36.7 °F /  2.6 °C 29.86in /  1011.1hPa Calm     95.9% 0.00in /  0mm 0 W/m2
06:39 37.5 °F /  3.1 °C 36.2 °F /  2.3 °C 29.87in /  1011.4hPa Calm     95% 0.00in /  0mm 0 W/m2
06:44 37.5 °F /  3.1 °C 36.2 °F /  2.3 °C 29.86in /  1011.1hPa Calm     95% 0.00in /  0mm 5 W/m2
06:49 37.5 °F /  3.1 °C 36.3 °F /  2.4 °C 29.86in /  1011.1hPa Calm     95.5% 0.00in /  0mm 9 W/m2
06:54 37.5 °F /  3.1 °C 36.5 °F /  2.5 °C 29.86in /  1011.1hPa Calm     96% 0.00in /  0mm 11 W/m2
06:59 37.5 °F /  3.1 °C 36.5 °F /  2.5 °C 29.86in /  1011.1hPa Calm     96% 0.00in /  0mm 14 W/m2
07:04 37.7 °F /  3.2 °C 36.6 °F /  2.6 °C 29.86in /  1011.1hPa Calm     96% 0.00in /  0mm 16 W/m2
07:09 37.6 °F /  3.1 °C 36.6 °F /  2.6 °C 29.86in /  1011.1hPa Calm     96% 0.00in /  0mm 30 W/m2
07:14 37.7 °F /  3.2 °C 36.6 °F /  2.6 °C 29.86in /  1011.1hPa Calm     96% 0.00in /  0mm 51 W/m2
07:19 37.9 °F /  3.3 °C 36.8 °F /  2.7 °C 29.85in /  1010.7hPa Calm     96% 0.00in /  0mm 42 W/m2
07:24 38.2 °F /  3.4 °C 37.1 °F /  2.8 °C 29.85in /  1010.7hPa Calm     96% 0.00in /  0mm 25 W/m2
07:29 38.6 °F /  3.7 °C 37.5 °F /  3.1 °C 29.85in /  1010.7hPa Calm     96% 0.00in /  0mm 39 W/m2
07:34 38.8 °F /  3.8 °C 37.8 °F /  3.2 °C 29.85in /  1010.7hPa Calm     96% 0.00in /  0mm 44 W/m2
07:39 39.1 °F /  3.9 °C 38.1 °F /  3.4 °C 29.84in /  1010.4hPa Calm     96% 0.00in /  0mm 44 W/m2
07:44 39.4 °F /  4.1 °C 38.3 °F /  3.5 °C 29.84in /  1010.4hPa Calm     96% 0.00in /  0mm 54 W/m2
07:49 39.6 °F /  4.2 °C 38.6 °F /  3.7 °C 29.84in /  1010.4hPa Calm     96% 0.00in /  0mm 53 W/m2
07:54 40 °F /  4.4 °C 38.9 °F /  3.8 °C 29.85in /  1010.7hPa Calm     96% 0.00in /  0mm 125 W/m2
07:59 40.4 °F /  4.7 °C 39.4 °F /  4.1 °C 29.84in /  1010.4hPa Calm     96.3% 0.00in /  0mm 190 W/m2
08:00 40.7 °F /  4.8 °C 39.9 °F /  4.4 °C 29.84in /  1010.4hPa Calm     97% 0.00in /  0mm 172 W/m2
08:09 41.6 °F /  5.3 °C 40.8 °F /  4.9 °C 29.84in /  1010.4hPa Calm     97% 0.00in /  0mm 206 W/m2
08:14 42.1 °F /  5.6 °C 41.3 °F /  5.2 °C 29.84in /  1010.4hPa Calm     97% 0.00in /  0mm 243 W/m2
08:19 42.7 °F /  5.9 °C 41.9 °F /  5.5 °C 29.83in /  1010hPa Calm     97% 0.00in /  0mm 262 W/m2
08:24 43.4 °F /  6.3 °C 42.6 °F /  5.9 °C 29.83in /  1010hPa Calm     97% 0.00in /  0mm 271 W/m2
08:29 44 °F /  6.7 °C 43.2 °F /  6.2 °C 29.83in /  1010hPa Calm     97% 0.00in /  0mm 281 W/m2
08:34 44.6 °F /  7 °C 43.8 °F /  6.6 °C 29.83in /  1010hPa Calm     97% 0.00in /  0mm 290 W/m2
08:39 45.3 °F /  7.4 °C 44.5 °F /  6.9 °C 29.82in /  1009.7hPa Calm   1mph /  1.6km/h 97% 0.00in /  0mm 299 W/m2
08:44 45.9 °F /  7.7 °C 45.1 °F /  7.3 °C 29.82in /  1009.7hPa Calm   1mph /  1.6km/h 97% 0.00in /  0mm 306 W/m2
08:49 46.7 °F /  8.2 °C 45.9 °F /  7.7 °C 29.82in /  1009.7hPa Calm   1mph /  1.6km/h 97% 0.00in /  0mm 313 W/m2
08:54 47.3 °F /  8.5 °C 46.5 °F /  8.1 °C 29.82in /  1009.7hPa Calm   1mph /  1.6km/h 97% 0.00in /  0mm 323 W/m2
08:59 47.7 °F /  8.7 °C 46.9 °F /  8.3 °C 29.82in /  1009.7hPa WNW 0.6mph /  1km/h 3mph /  4.8km/h 97% 0.00in /  0mm 336 W/m2
09:04 47.9 °F /  8.8 °C 46.8 °F /  8.2 °C 29.81in /  1009.4hPa Calm   3mph /  4.8km/h 95.9% 0.00in /  0mm 341 W/m2
09:09 48 °F /  8.9 °C 46.4 °F /  8 °C 29.81in /  1009.4hPa Calm     93.9% 0.00in /  0mm 287 W/m2
09:14 48.1 °F /  8.9 °C 45.9 °F /  7.7 °C 29.81in /  1009.4hPa Calm     92.2% 0.00in /  0mm 186 W/m2
09:19 48 °F /  8.9 °C 45.5 °F /  7.5 °C 29.81in /  1009.4hPa WNW 0.2mph /  0.3km/h 2mph /  3.2km/h 91.1% 0.00in /  0mm 330 W/m2
09:24 47.9 °F /  8.8 °C 45.4 °F /  7.4 °C 29.80in /  1009hPa WNW 0.4mph /  0.6km/h 4mph /  6.4km/h 91% 0.00in /  0mm 230 W/m2
09:29 48.1 °F /  8.9 °C 45.6 °F /  7.6 °C 29.80in /  1009hPa WNW 0.2mph /  0.3km/h 4mph /  6.4km/h 91% 0.00in /  0mm 160 W/m2
09:34 48.1 °F /  8.9 °C 45.6 °F /  7.6 °C 29.80in /  1009hPa WNW 0.2mph /  0.3km/h 4mph /  6.4km/h 90.8% 0.00in /  0mm 146 W/m2
09:39 48.1 °F /  8.9 °C 45.3 °F /  7.4 °C 29.80in /  1009hPa WNW 0.1mph /  0.2km/h 2mph /  3.2km/h 90% 0.00in /  0mm 107 W/m2
09:44 48 °F /  8.9 °C 45 °F /  7.2 °C 29.79in /  1008.7hPa Calm   2mph /  3.2km/h 89.3% 0.00in /  0mm 320 W/m2
09:49 48 °F /  8.9 °C 45 °F /  7.2 °C 29.79in /  1008.7hPa Calm   2mph /  3.2km/h 89.5% 0.00in /  0mm 348 W/m2
09:54 48.2 °F /  9 °C 45.6 °F /  7.6 °C 29.79in /  1008.7hPa WNW 0.6mph /  1km/h 3mph /  4.8km/h 90.7% 0.00in /  0mm 188 W/m2
09:59 48.4 °F /  9.1 °C 45.6 °F /  7.6 °C 29.79in /  1008.7hPa Calm   3mph /  4.8km/h 90% 0.00in /  0mm 209 W/m2
10:04 48.7 °F /  9.3 °C 45.9 °F /  7.7 °C 29.79in /  1008.7hPa WNW 0.5mph /  0.8km/h 4mph /  6.4km/h 90% 0.00in /  0mm 345 W/m2
10:09 49.2 °F /  9.6 °C 46.4 °F /  8 °C 29.78in /  1008.4hPa WNW 0.2mph /  0.3km/h 4mph /  6.4km/h 90% 0.00in /  0mm 454 W/m2
10:14 49.8 °F /  9.9 °C 46.8 °F /  8.2 °C 29.77in /  1008hPa WNW 0.1mph /  0.2km/h 4mph /  6.4km/h 89.3% 0.00in /  0mm 471 W/m2
10:19 50.5 °F /  10.3 °C 47.3 °F /  8.5 °C 29.77in /  1008hPa NW 0.8mph /  1.3km/h 4mph /  6.4km/h 88.7% 0.00in /  0mm 485 W/m2
10:24 51.1 °F /  10.6 °C 47.4 °F /  8.6 °C 29.77in /  1008hPa Calm   4mph /  6.4km/h 87.1% 0.00in /  0mm 497 W/m2
10:29 51.5 °F /  10.8 °C 47.1 °F /  8.4 °C 29.76in /  1007.7hPa Calm   4mph /  6.4km/h 84.8% 0.00in /  0mm 503 W/m2
10:34 52 °F /  11.1 °C 47.7 °F /  8.7 °C 29.76in /  1007.7hPa Calm   4mph /  6.4km/h 85.1% 0.00in /  0mm 510 W/m2
10:39 52.6 °F /  11.4 °C 48.2 °F /  9 °C 29.76in /  1007.7hPa Calm     85% 0.00in /  0mm 512 W/m2
10:44 53.3 °F /  11.8 °C 48.6 °F /  9.2 °C 29.75in /  1007.3hPa Calm     84% 0.00in /  0mm 223 W/m2
10:49 53.8 °F /  12.1 °C 48.9 °F /  9.4 °C 29.75in /  1007.3hPa Calm     83.6% 0.00in /  0mm 95 W/m2
10:54 54.1 °F /  12.3 °C 49 °F /  9.4 °C 29.75in /  1007.3hPa Calm     82.6% 0.00in /  0mm 176 W/m2
10:59 54.4 °F /  12.4 °C 49.2 °F /  9.6 °C 29.74in /  1007hPa Calm     82.6% 0.00in /  0mm 276 W/m2
11:04 54.7 °F /  12.6 °C 49.5 °F /  9.7 °C 29.74in /  1007hPa Calm     82.5% 0.00in /  0mm 325 W/m2
11:09 55.1 °F /  12.8 °C 49.7 °F /  9.8 °C 29.73in /  1006.7hPa Calm     82% 0.00in /  0mm 323 W/m2
11:13 55.4 °F /  13 °C 49.8 °F /  9.9 °C 29.73in /  1006.7hPa Calm     81.5% 0.00in /  0mm 207 W/m2
11:19 55.8 °F /  13.2 °C 50.1 °F /  10.1 °C 29.73in /  1006.7hPa NW 0.3mph /  0.5km/h 3mph /  4.8km/h 80.8% 0.00in /  0mm 178 W/m2
11:24 56.1 °F /  13.4 °C 49.4 °F /  9.7 °C 29.72in /  1006.3hPa NW 0.6mph /  1km/h 4mph /  6.4km/h 78.3% 0.00in /  0mm 230 W/m2
11:29 56.2 °F /  13.4 °C 49.5 °F /  9.7 °C 29.72in /  1006.3hPa Calm   4mph /  6.4km/h 78% 0.00in /  0mm 253 W/m2
11:34 56.5 °F /  13.6 °C 49.7 °F /  9.8 °C 29.71in /  1006hPa NW 0.1mph /  0.2km/h 4mph /  6.4km/h 78% 0.00in /  0mm 399 W/m2
11:39 56.9 °F /  13.8 °C 50.2 °F /  10.1 °C 29.71in /  1006hPa Calm   2mph /  3.2km/h 78.3% 0.00in /  0mm 399 W/m2
11:44 57.3 °F /  14.1 °C 50.3 °F /  10.2 °C 29.71in /  1006hPa Calm   2mph /  3.2km/h 77.4% 0.00in /  0mm 181 W/m2
11:49 57.8 °F /  14.3 °C 51.2 °F /  10.7 °C 29.70in /  1005.6hPa Calm   2mph /  3.2km/h 78.5% 0.00in /  0mm 258 W/m2
11:54 58.4 °F /  14.7 °C 50.9 °F /  10.5 °C 29.70in /  1005.6hPa WSW 1.1mph /  1.8km/h 7mph /  11.3km/h 76.1% 0.00in /  0mm 287 W/m2
11:59 59.1 °F /  15.1 °C 50.6 °F /  10.3 °C 29.70in /  1005.6hPa SSE 1.9mph /  3.1km/h 9mph /  14.5km/h 73.3% 0.00in /  0mm 169 W/m2
12:09 60.6 °F /  15.9 °C 47.6 °F /  8.7 °C 29.68in /  1005hPa SSE 2.7mph /  4.3km/h 7mph /  11.3km/h 62.2% 0.00in /  0mm 192 W/m2
12:14 60.9 °F /  16.1 °C 47.3 °F /  8.5 °C 29.68in /  1005hPa SSE 2.4mph /  3.9km/h 9mph /  14.5km/h 60.9% 0.00in /  0mm 100 W/m2
12:19 61.1 °F /  16.2 °C 46.8 °F /  8.2 °C 29.68in /  1005hPa SE 2.2mph /  3.5km/h 9mph /  14.5km/h 59.2% 0.00in /  0mm 109 W/m2
12:24 61.3 °F /  16.3 °C 46.3 °F /  7.9 °C 29.67in /  1004.6hPa SE 1.8mph /  2.9km/h 9mph /  14.5km/h 57.8% 0.00in /  0mm 188 W/m2
12:29 61.5 °F /  16.4 °C 46.3 °F /  7.9 °C 29.67in /  1004.6hPa South 1.1mph /  1.8km/h 9mph /  14.5km/h 57.3% 0.00in /  0mm 264 W/m2
12:34 61.8 °F /  16.6 °C 43.9 °F /  6.6 °C 29.65in /  1003.9hPa South 3.9mph /  6.3km/h 10mph /  16.1km/h 51.9% 0.00in /  0mm 248 W/m2
12:39 61.8 °F /  16.6 °C 43.3 °F /  6.3 °C 29.65in /  1003.9hPa South 2.2mph /  3.5km/h 10mph /  16.1km/h 50.6% 0.00in /  0mm 113 W/m2
12:44 61.9 °F /  16.6 °C 43.4 °F /  6.3 °C 29.65in /  1003.9hPa South 3.9mph /  6.3km/h 11mph /  17.7km/h 50.7% 0.00in /  0mm 81 W/m2
12:49 61.9 °F /  16.6 °C 42.4 °F /  5.8 °C 29.65in /  1003.9hPa South 2.8mph /  4.5km/h 11mph /  17.7km/h 48.8% 0.00in /  0mm 144 W/m2
12:54 62 °F /  16.7 °C 42 °F /  5.6 °C 29.65in /  1003.9hPa SSE 4.4mph /  7.1km/h 14mph /  22.5km/h 47.8% 0.00in /  0mm 225 W/m2
12:59 61.9 °F /  16.6 °C 41.5 °F /  5.3 °C 29.64in /  1003.6hPa SSE 3mph /  4.8km/h 14mph /  22.5km/h 47.1% 0.00in /  0mm 202 W/m2
13:04 61.7 °F /  16.5 °C 41.4 °F /  5.2 °C 29.62in /  1002.9hPa SE 3.4mph /  5.5km/h 14mph /  22.5km/h 47.2% 0.00in /  0mm 367 W/m2
13:09 61.6 °F /  16.4 °C 41.9 °F /  5.5 °C 29.62in /  1002.9hPa SE 3.2mph /  5.1km/h 11mph /  17.7km/h 48.4% 0.00in /  0mm 367 W/m2
13:14 61.5 °F /  16.4 °C 42.3 °F /  5.7 °C 29.61in /  1002.6hPa SE 3.5mph /  5.6km/h 11mph /  17.7km/h 49.2% 0.00in /  0mm 332 W/m2
13:19 61.4 °F /  16.3 °C 42.9 °F /  6.1 °C 29.60in /  1002.3hPa SE 4.3mph /  6.9km/h 16mph /  25.7km/h 50.6% 0.00in /  0mm 332 W/m2
13:24 61.4 °F /  16.3 °C 43.9 °F /  6.6 °C 29.60in /  1002.3hPa South 1.9mph /  3.1km/h 16mph /  25.7km/h 52.4% 0.00in /  0mm 374 W/m2
13:29 61.6 °F /  16.4 °C 44.8 °F /  7.1 °C 29.59in /  1001.9hPa SE 1.7mph /  2.7km/h 16mph /  25.7km/h 53.9% 0.00in /  0mm 162 W/m2
13:34 61.7 °F /  16.5 °C 45.8 °F /  7.7 °C 29.58in /  1001.6hPa SSE 4.4mph /  7.1km/h 16mph /  25.7km/h 56% 0.00in /  0mm 162 W/m2
13:39 61.4 °F /  16.3 °C 46.6 °F /  8.1 °C 29.57in /  1001.2hPa SSE 3.4mph /  5.5km/h 16mph /  25.7km/h 58.1% 0.00in /  0mm 260 W/m2
13:44 61.3 °F /  16.3 °C 47.4 °F /  8.6 °C 29.56in /  1000.9hPa SSE 4.8mph /  7.7km/h 16mph /  25.7km/h 60.2% 0.00in /  0mm 260 W/m2
13:49 61.1 °F /  16.2 °C 47.6 °F /  8.7 °C 29.56in /  1000.9hPa SSE 4mph /  6.4km/h 16mph /  25.7km/h 61.1% 0.00in /  0mm 214 W/m2
13:54 60.9 °F /  16.1 °C 47.8 °F /  8.8 °C 29.56in /  1000.9hPa SSE 2.6mph /  4.2km/h 16mph /  25.7km/h 62% 0.00in /  0mm 190 W/m2
13:59 60.9 °F /  16.1 °C 48.1 °F /  8.9 °C 29.56in /  1000.9hPa SSE 2.5mph /  4km/h 16mph /  25.7km/h 62.8% 0.00in /  0mm 200 W/m2
14:04 60.9 °F /  16.1 °C 48.2 °F /  9 °C 29.56in /  1000.9hPa SE 3.6mph /  5.8km/h 16mph /  25.7km/h 63% 0.00in /  0mm 153 W/m2
14:09 60.7 °F /  15.9 °C 48.1 °F /  8.9 °C 29.55in /  1000.6hPa South 1.6mph /  2.6km/h 11mph /  17.7km/h 63.1% 0.00in /  0mm 100 W/m2
14:14 60.6 °F /  15.9 °C 48.2 °F /  9 °C 29.55in /  1000.6hPa South 3mph /  4.8km/h 11mph /  17.7km/h 63.5% 0.00in /  0mm 113 W/m2
14:19 60.5 °F /  15.8 °C 48.5 °F /  9.2 °C 29.55in /  1000.6hPa South 3.4mph /  5.5km/h 17mph /  27.4km/h 64.4% 0.00in /  0mm 181 W/m2
14:24 60.3 °F /  15.7 °C 48.5 °F /  9.2 °C 29.55in /  1000.6hPa South 5.5mph /  8.9km/h 17mph /  27.4km/h 65% 0.00in /  0mm 67 W/m2
14:29 60.1 °F /  15.6 °C 48.8 °F /  9.3 °C 29.55in /  1000.6hPa SSE 2.9mph /  4.7km/h 17mph /  27.4km/h 66.3% 0.00in /  0mm 53 W/m2
14:34 59.8 °F /  15.4 °C 49.1 °F /  9.5 °C 29.54in /  1000.2hPa SSE 2.2mph /  3.5km/h 17mph /  27.4km/h 67.5% 0.00in /  0mm 70 W/m2
14:39 59.6 °F /  15.3 °C 49.3 °F /  9.6 °C 29.54in /  1000.2hPa SSE 3mph /  4.8km/h 11mph /  17.7km/h 68.6% 0.00in /  0mm 65 W/m2
14:44 59.5 °F /  15.3 °C 49.3 °F /  9.6 °C 29.53in /  999.9hPa South 2.7mph /  4.3km/h 11mph /  17.7km/h 69% 0.00in /  0mm 60 W/m2
14:49 59.5 °F /  15.3 °C 49.4 °F /  9.7 °C 29.53in /  999.9hPa SSE 3.3mph /  5.3km/h 11mph /  17.7km/h 69.3% 0.00in /  0mm 47 W/m2
14:54 59.4 °F /  15.2 °C 49.6 °F /  9.8 °C 29.53in /  999.9hPa South 3.4mph /  5.5km/h 11mph /  17.7km/h 70% 0.00in /  0mm 33 W/m2
14:59 59.3 °F /  15.2 °C 49.6 °F /  9.8 °C 29.53in /  999.9hPa South 1.1mph /  1.8km/h 11mph /  17.7km/h 70.1% 0.00in /  0mm 25 W/m2
15:04 59.2 °F /  15.1 °C 49.8 °F /  9.9 °C 29.53in /  999.9hPa SSE 1.6mph /  2.6km/h 11mph /  17.7km/h 71% 0.00in /  0mm 18 W/m2
15:09 59.1 °F /  15.1 °C 49.7 °F /  9.8 °C 29.52in /  999.5hPa SE 1.8mph /  2.9km/h 9mph /  14.5km/h 71% 0.00in /  0mm 12 W/m2
15:14 59 °F /  15 °C 50 °F /  10 °C 29.52in /  999.5hPa SE 0.9mph /  1.4km/h 9mph /  14.5km/h 71.9% 0.00in /  0mm 11 W/m2
15:19 58.9 °F /  14.9 °C 50.1 °F /  10.1 °C 29.51in /  999.2hPa ESE 1.2mph /  1.9km/h 12mph /  19.3km/h 72.5% 0.00in /  0mm 9 W/m2
15:24 58.8 °F /  14.9 °C 50.2 °F /  10.1 °C 29.50in /  998.9hPa ESE 0.7mph /  1.1km/h 12mph /  19.3km/h 73% 0.00in /  0mm 5 W/m2
15:29 58.7 °F /  14.8 °C 50.1 °F /  10.1 °C 29.50in /  998.9hPa South 2mph /  3.2km/h 12mph /  19.3km/h 73% 0.00in /  0mm 0 W/m2
15:34 58.6 °F /  14.8 °C 50.4 °F /  10.2 °C 29.50in /  998.9hPa SE 3.2mph /  5.1km/h 12mph /  19.3km/h 74% 0.00in /  0mm 0 W/m2
15:39 58.5 °F /  14.7 °C 51 °F /  10.6 °C 29.50in /  998.9hPa ESE 3.4mph /  5.5km/h 11mph /  17.7km/h 76% 0.02in /  0.51mm 0 W/m2
15:44 58 °F /  14.4 °C 51.5 °F /  10.8 °C 29.47in /  997.9hPa SE 3.2mph /  5.1km/h 11mph /  17.7km/h 78.8% 0.04in /  1.02mm 0 W/m2
15:49 57.2 °F /  14 °C 51.8 °F /  11 °C 29.53in /  999.9hPa SW 5.9mph /  9.5km/h 16mph /  25.7km/h 82.2% 0.10in /  2.54mm 0 W/m2
15:54 55.6 °F /  13.1 °C 50 °F /  10 °C 29.53in /  999.9hPa WSW 9mph /  14.5km/h 30mph /  48.3km/h 81.2% 0.22in /  5.59mm 0 W/m2
15:59 53 °F /  11.7 °C 47.3 °F /  8.5 °C 29.52in /  999.5hPa WSW 3.8mph /  6.1km/h 30mph /  48.3km/h 80.8% 0.26in /  6.6mm 0 W/m2
16:00 52 °F /  11.1 °C 46.7 °F /  8.2 °C 29.52in /  999.5hPa SW 6mph /  9.7km/h 30mph /  48.3km/h 82% 0.26in /  6.6mm 0 W/m2
16:09 50.3 °F /  10.2 °C 46.5 °F /  8.1 °C 29.53in /  999.9hPa WSW 2.5mph /  4km/h 14mph /  22.5km/h 86.8% 0.32in /  8.13mm 0 W/m2
16:14 49.7 °F /  9.8 °C 46.5 °F /  8.1 °C 29.52in /  999.5hPa WSW 1.2mph /  1.9km/h 14mph /  22.5km/h 88.6% 0.35in /  8.89mm 0 W/m2
16:19 49.5 °F /  9.7 °C 46.6 °F /  8.1 °C 29.52in /  999.5hPa West 0.7mph /  1.1km/h 14mph /  22.5km/h 89.7% 0.38in /  9.65mm 0 W/m2
16:24 49.3 °F /  9.6 °C 46.7 °F /  8.2 °C 29.52in /  999.5hPa WSW 1.1mph /  1.8km/h 14mph /  22.5km/h 90.9% 0.40in /  10.16mm 0 W/m2
16:29 49.2 °F /  9.6 °C 46.7 °F /  8.2 °C 29.52in /  999.5hPa WSW 0.6mph /  1km/h 14mph /  22.5km/h 91% 0.40in /  10.16mm 0 W/m2
16:34 49.1 °F /  9.5 °C 46.8 °F /  8.2 °C 29.53in /  999.9hPa WSW 0.5mph /  0.8km/h 14mph /  22.5km/h 91.8% 0.40in /  10.16mm 0 W/m2
16:39 49 °F /  9.4 °C 46.8 °F /  8.2 °C 29.54in /  1000.2hPa WSW 0.6mph /  1km/h 9mph /  14.5km/h 92% 0.40in /  10.16mm 0 W/m2
16:44 48.9 °F /  9.4 °C 46.7 °F /  8.2 °C 29.54in /  1000.2hPa WSW 0.6mph /  1km/h 9mph /  14.5km/h 92% 0.40in /  10.16mm 0 W/m2
16:49 48.8 °F /  9.3 °C 46.8 °F /  8.2 °C 29.54in /  1000.2hPa WSW 1.8mph /  2.9km/h 11mph /  17.7km/h 92.9% 0.40in /  10.16mm 0 W/m2
16:54 48.7 °F /  9.3 °C 46.8 °F /  8.2 °C 29.56in /  1000.9hPa WSW 1mph /  1.6km/h 11mph /  17.7km/h 93% 0.40in /  10.16mm 0 W/m2
16:59 48.6 °F /  9.2 °C 46.7 °F /  8.2 °C 29.57in /  1001.2hPa WSW 5.9mph /  9.5km/h 19mph /  30.6km/h 93% 0.40in /  10.16mm 0 W/m2
17:04 48.4 °F /  9.1 °C 46.5 °F /  8.1 °C 29.57in /  1001.2hPa WSW 9.3mph /  15km/h 22mph /  35.4km/h 93% 0.40in /  10.16mm 0 W/m2
17:09 47.9 °F /  8.8 °C 45.7 °F /  7.6 °C 29.58in /  1001.6hPa West 9.3mph /  15km/h 26mph /  41.8km/h 92.2% 0.14in /  3.56mm 0 W/m2
17:14 47.4 °F /  8.6 °C 45 °F /  7.2 °C 29.57in /  1001.2hPa WNW 11mph /  17.7km/h 26mph /  41.8km/h 91.6% 0.14in /  3.56mm 0 W/m2
17:19 47.1 °F /  8.4 °C 44.6 °F /  7 °C 29.57in /  1001.2hPa WNW 10.4mph /  16.7km/h 26mph /  41.8km/h 91% 0.14in /  3.56mm 0 W/m2
17:24 46.8 °F /  8.2 °C 44.4 °F /  6.9 °C 29.58in /  1001.6hPa NW 11.7mph /  18.8km/h 26mph /  41.8km/h 91% 0.14in /  3.56mm 0 W/m2
17:29 46.3 °F /  7.9 °C 43.6 °F /  6.4 °C 29.58in /  1001.6hPa NW 8mph /  12.9km/h 26mph /  41.8km/h 90.1% 0.14in /  3.56mm 0 W/m2
17:34 45.7 °F /  7.6 °C 42.8 °F /  6 °C 29.58in /  1001.6hPa NW 8.8mph /  14.2km/h 26mph /  41.8km/h 89.5% 0.14in /  3.56mm 0 W/m2
17:39 45.2 °F /  7.3 °C 42.1 °F /  5.6 °C 29.58in /  1001.6hPa NW 7.4mph /  11.9km/h 17mph /  27.4km/h 89% 0.00in /  0mm 0 W/m2
17:44 44.7 °F /  7.1 °C 41.7 °F /  5.4 °C 29.57in /  1001.2hPa NW 5.6mph /  9km/h 17mph /  27.4km/h 89% 0.00in /  0mm 0 W/m2
17:49 44.4 °F /  6.9 °C 41.5 °F /  5.3 °C 29.60in /  1002.3hPa WNW 3.2mph /  5.1km/h 17mph /  27.4km/h 89.2% 0.00in /  0mm 0 W/m2
17:54 44.2 °F /  6.8 °C 41.5 °F /  5.3 °C 29.61in /  1002.6hPa West 7.4mph /  11.9km/h 18mph /  29km/h 90% 0.00in /  0mm 0 W/m2
17:59 44 °F /  6.7 °C 41.2 °F /  5.1 °C 29.61in /  1002.6hPa WNW 5mph /  8km/h 18mph /  29km/h 90% 0.00in /  0mm 0 W/m2
18:04 43.8 °F /  6.6 °C 41.1 °F /  5.1 °C 29.63in /  1003.3hPa West 5.1mph /  8.2km/h 18mph /  29km/h 90% 0.00in /  0mm 0 W/m2
18:09 43.8 °F /  6.6 °C 41.3 °F /  5.2 °C 29.64in /  1003.6hPa West 3.1mph /  5km/h 13mph /  20.9km/h 90.7% 0.00in /  0mm 0 W/m2
18:14 43.8 °F /  6.6 °C 41.4 °F /  5.2 °C 29.64in /  1003.6hPa West 4.3mph /  6.9km/h 13mph /  20.9km/h 91% 0.00in /  0mm 0 W/m2
18:19 43.9 °F /  6.6 °C 41.5 °F /  5.3 °C 29.64in /  1003.6hPa West 2.4mph /  3.9km/h 13mph /  20.9km/h 91% 0.00in /  0mm 0 W/m2
18:24 44.1 °F /  6.7 °C 41.6 °F /  5.3 °C 29.64in /  1003.6hPa WNW 5.7mph /  9.2km/h 16mph /  25.7km/h 91% 0.00in /  0mm 0 W/m2
18:29 44.1 °F /  6.7 °C 41.7 °F /  5.4 °C 29.66in /  1004.3hPa West 4.8mph /  7.7km/h 16mph /  25.7km/h 91% 0.00in /  0mm 0 W/m2
18:34 44.2 °F /  6.8 °C 41.8 °F /  5.4 °C 29.66in /  1004.3hPa West 7.1mph /  11.4km/h 17mph /  27.4km/h 91% 0.00in /  0mm 0 W/m2
18:39 44.3 °F /  6.8 °C 41.8 °F /  5.4 °C 29.66in /  1004.3hPa WNW 4.2mph /  6.8km/h 17mph /  27.4km/h 91% 0.00in /  0mm 0 W/m2
18:44 44.3 °F /  6.8 °C 41.8 °F /  5.4 °C 29.67in /  1004.6hPa West 5.7mph /  9.2km/h 17mph /  27.4km/h 91% 0.00in /  0mm 0 W/m2
18:49 44.3 °F /  6.8 °C 41.8 °F /  5.4 °C 29.67in /  1004.6hPa WNW 6.4mph /  10.3km/h 17mph /  27.4km/h 91% 0.01in /  0.25mm 0 W/m2
18:54 44.2 °F /  6.8 °C 41.6 °F /  5.3 °C 29.66in /  1004.3hPa West 4.3mph /  6.9km/h 17mph /  27.4km/h 90.7% 0.01in /  0.25mm 0 W/m2
18:59 44 °F /  6.7 °C 41.2 °F /  5.1 °C 29.67in /  1004.6hPa West 5.6mph /  9km/h 17mph /  27.4km/h 90% 0.01in /  0.25mm 0 W/m2
19:04 43.7 °F /  6.5 °C 40.9 °F /  4.9 °C 29.68in /  1005hPa West 7.2mph /  11.6km/h 17mph /  27.4km/h 89.6% 0.01in /  0.25mm 0 W/m2
19:09 43.6 °F /  6.4 °C 40.6 °F /  4.8 °C 29.68in /  1005hPa WNW 5.5mph /  8.9km/h 17mph /  27.4km/h 89% 0.01in /  0.25mm 0 W/m2
19:14 43.5 °F /  6.4 °C 40.3 °F /  4.6 °C 29.69in /  1005.3hPa WNW 6mph /  9.7km/h 17mph /  27.4km/h 88.4% 0.01in /  0.25mm 0 W/m2
19:19 43.4 °F /  6.3 °C 40 °F /  4.4 °C 29.68in /  1005hPa WNW 9.3mph /  15km/h 19mph /  30.6km/h 87.7% 0.01in /  0.25mm 0 W/m2
19:24 43.4 °F /  6.3 °C 39.7 °F /  4.3 °C 29.69in /  1005.3hPa NW 7.7mph /  12.4km/h 19mph /  30.6km/h 86.7% 0.01in /  0.25mm 0 W/m2
19:29 43.4 °F /  6.3 °C 39.5 °F /  4.2 °C 29.69in /  1005.3hPa NW 8.9mph /  14.3km/h 19mph /  30.6km/h 86% 0.01in /  0.25mm 0 W/m2
19:34 43.4 °F /  6.3 °C 39.2 °F /  4 °C 29.69in /  1005.3hPa NW 7.4mph /  11.9km/h 19mph /  30.6km/h 85.1% 0.01in /  0.25mm 0 W/m2
19:39 43.4 °F /  6.3 °C 39.2 °F /  4 °C 29.69in /  1005.3hPa WNW 3mph /  4.8km/h 17mph /  27.4km/h 85% 0.01in /  0.25mm 0 W/m2
19:44 43.2 °F /  6.2 °C 39 °F /  3.9 °C 29.69in /  1005.3hPa NW 4.5mph /  7.2km/h 17mph /  27.4km/h 85% 0.01in /  0.25mm 0 W/m2
19:49 43 °F /  6.1 °C 38.7 °F /  3.7 °C 29.69in /  1005.3hPa WNW 5.6mph /  9km/h 17mph /  27.4km/h 84.6% 0.01in /  0.25mm 0 W/m2
19:54 42.8 °F /  6 °C 38.3 °F /  3.5 °C 29.69in /  1005.3hPa WNW 7mph /  11.3km/h 17mph /  27.4km/h 84% 0.01in /  0.25mm 0 W/m2
19:59 42.7 °F /  5.9 °C 37.9 °F /  3.3 °C 29.69in /  1005.3hPa NW 4.6mph /  7.4km/h 17mph /  27.4km/h 83.2% 0.01in /  0.25mm 0 W/m2
20:00 42.6 °F /  5.9 °C 37.8 °F /  3.2 °C 29.69in /  1005.3hPa NW 1mph /  1.6km/h 17mph /  27.4km/h 83% 0.01in /  0.25mm 0 W/m2
20:09 42.3 °F /  5.7 °C 37.9 °F /  3.3 °C 29.70in /  1005.6hPa WNW 2mph /  3.2km/h 8mph /  12.9km/h 84% 0.00in /  0mm 0 W/m2
20:14 42.1 °F /  5.6 °C 37.7 °F /  3.2 °C 29.70in /  1005.6hPa WNW 2.7mph /  4.3km/h 11mph /  17.7km/h 84% 0.00in /  0mm 0 W/m2
20:19 42 °F /  5.6 °C 37.4 °F /  3 °C 29.70in /  1005.6hPa WNW 1.9mph /  3.1km/h 11mph /  17.7km/h 83.8% 0.00in /  0mm 0 W/m2
20:24 41.8 °F /  5.4 °C 37.3 °F /  2.9 °C 29.70in /  1005.6hPa WNW 2.9mph /  4.7km/h 11mph /  17.7km/h 83.8% 0.00in /  0mm 0 W/m2
20:29 41.7 °F /  5.4 °C 37.2 °F /  2.9 °C 29.71in /  1006hPa WNW 3mph /  4.8km/h 11mph /  17.7km/h 83.7% 0.00in /  0mm 0 W/m2
20:34 41.6 °F /  5.3 °C 37.1 °F /  2.8 °C 29.71in /  1006hPa NW 0.2mph /  0.3km/h 11mph /  17.7km/h 83.9% 0.00in /  0mm 0 W/m2
20:39 41.5 °F /  5.3 °C 37.1 °F /  2.8 °C 29.71in /  1006hPa NW 0.1mph /  0.2km/h 3mph /  4.8km/h 84% 0.00in /  0mm 0 W/m2
20:44 41.4 °F /  5.2 °C 37 °F /  2.8 °C 29.71in /  1006hPa Calm   3mph /  4.8km/h 84% 0.00in /  0mm 0 W/m2
20:49 41.2 °F /  5.1 °C 36.8 °F /  2.7 °C 29.71in /  1006hPa NW 0.1mph /  0.2km/h 3mph /  4.8km/h 84% 0.00in /  0mm 0 W/m2
20:54 41.1 °F /  5.1 °C 36.9 °F /  2.7 °C 29.71in /  1006hPa WNW 1.9mph /  3.1km/h 11mph /  17.7km/h 85.1% 0.00in /  0mm 0 W/m2
20:59 40.9 °F /  4.9 °C 36.7 °F /  2.6 °C 29.72in /  1006.3hPa NW 0.4mph /  0.6km/h 11mph /  17.7km/h 85% 0.00in /  0mm 0 W/m2
21:04 40.8 °F /  4.9 °C 36.6 °F /  2.6 °C 29.72in /  1006.3hPa NW 0.2mph /  0.3km/h 11mph /  17.7km/h 85% 0.00in /  0mm 0 W/m2
21:09 40.6 °F /  4.8 °C 36.5 °F /  2.5 °C 29.72in /  1006.3hPa Calm   6mph /  9.7km/h 85% 0.00in /  0mm 0 W/m2
21:14 40.5 °F /  4.7 °C 36.4 °F /  2.4 °C 29.72in /  1006.3hPa Calm   6mph /  9.7km/h 85.2% 0.00in /  0mm 0 W/m2
21:19 40.3 °F /  4.6 °C 36.4 °F /  2.4 °C 29.73in /  1006.7hPa NW 0.1mph /  0.2km/h 6mph /  9.7km/h 86% 0.00in /  0mm 0 W/m2
21:24 40.1 °F /  4.5 °C 36.3 °F /  2.4 °C 29.72in /  1006.3hPa West 0.5mph /  0.8km/h 6mph /  9.7km/h 86% 0.00in /  0mm 0 W/m2
21:29 39.9 °F /  4.4 °C 36.1 °F /  2.3 °C 29.73in /  1006.7hPa Calm   6mph /  9.7km/h 86% 0.00in /  0mm 0 W/m2
21:34 39.8 °F /  4.3 °C 35.9 °F /  2.2 °C 29.73in /  1006.7hPa Calm   6mph /  9.7km/h 86% 0.00in /  0mm 0 W/m2
21:39 39.6 °F /  4.2 °C 35.8 °F /  2.1 °C 29.73in /  1006.7hPa West 0.1mph /  0.2km/h 4mph /  6.4km/h 86% 0.00in /  0mm 0 W/m2
21:44 39.5 °F /  4.2 °C 35.9 °F /  2.2 °C 29.74in /  1007hPa Calm   4mph /  6.4km/h 87% 0.00in /  0mm 0 W/m2
21:49 39.3 °F /  4.1 °C 35.8 °F /  2.1 °C 29.74in /  1007hPa Calm   4mph /  6.4km/h 87% 0.00in /  0mm 0 W/m2
21:54 39.2 °F /  4 °C 35.7 °F /  2.1 °C 29.74in /  1007hPa Calm   4mph /  6.4km/h 87% 0.00in /  0mm 0 W/m2
21:59 39.1 °F /  3.9 °C 35.6 °F /  2 °C 29.75in /  1007.3hPa Calm   4mph /  6.4km/h 87% 0.00in /  0mm 0 W/m2
22:04 39 °F /  3.9 °C 35.7 °F /  2.1 °C 29.75in /  1007.3hPa Calm   4mph /  6.4km/h 87.7% 0.00in /  0mm 0 W/m2
22:09 38.9 °F /  3.8 °C 35.7 °F /  2.1 °C 29.75in /  1007.3hPa Calm     88% 0.00in /  0mm 0 W/m2
22:14 38.9 °F /  3.8 °C 35.8 °F /  2.1 °C 29.75in /  1007.3hPa Calm     88.5% 0.00in /  0mm 0 W/m2
22:19 39.1 °F /  3.9 °C 36.3 °F /  2.4 °C 29.75in /  1007.3hPa Calm     89.6% 0.00in /  0mm 0 W/m2
22:24 39.4 °F /  4.1 °C 36.9 °F /  2.7 °C 29.75in /  1007.3hPa Calm     90.8% 0.00in /  0mm 0 W/m2
22:29 39.5 °F /  4.2 °C 37.1 °F /  2.8 °C 29.75in /  1007.3hPa Calm     91% 0.00in /  0mm 0 W/m2
22:34 39.4 °F /  4.1 °C 37 °F /  2.8 °C 29.75in /  1007.3hPa Calm     91% 0.00in /  0mm 0 W/m2
22:39 39.2 °F /  4 °C 36.8 °F /  2.7 °C 29.75in /  1007.3hPa Calm     91% 0.00in /  0mm 0 W/m2
22:44 39.1 °F /  3.9 °C 36.7 °F /  2.6 °C 29.75in /  1007.3hPa West 0.1mph /  0.2km/h 2mph /  3.2km/h 91% 0.00in /  0mm 0 W/m2
22:49 39 °F /  3.9 °C 36.6 °F /  2.6 °C 29.76in /  1007.7hPa Calm   2mph /  3.2km/h 91% 0.00in /  0mm 0 W/m2
22:54 39 °F /  3.9 °C 36.6 °F /  2.6 °C 29.76in /  1007.7hPa Calm   2mph /  3.2km/h 91% 0.00in /  0mm 0 W/m2
22:59 39 °F /  3.9 °C 36.6 °F /  2.6 °C 29.76in /  1007.7hPa Calm   2mph /  3.2km/h 91% 0.00in /  0mm 0 W/m2
23:00 39 °F /  3.9 °C 36.6 °F /  2.6 °C 29.76in /  1007.7hPa Calm   2mph /  3.2km/h 91% 0.00in /  0mm 0 W/m2
23:09 38.8 °F /  3.8 °C 36.3 °F /  2.4 °C 29.76in /  1007.7hPa Calm     90.6% 0.00in /  0mm 0 W/m2
23:14 38.7 °F /  3.7 °C 36 °F /  2.2 °C 29.77in /  1008hPa WSW 0.4mph /  0.6km/h 5mph /  8km/h 90% 0.00in /  0mm 0 W/m2
23:19 38.6 °F /  3.7 °C 35.9 °F /  2.2 °C 29.77in /  1008hPa WSW 0.1mph /  0.2km/h 5mph /  8km/h 90% 0.00in /  0mm 0 W/m2
23:24 38.5 °F /  3.6 °C 35.9 °F /  2.2 °C 29.77in /  1008hPa Calm   5mph /  8km/h 90% 0.00in /  0mm 0 W/m2
23:29 38.5 °F /  3.6 °C 35.8 °F /  2.1 °C 29.77in /  1008hPa Calm   5mph /  8km/h 90% 0.00in /  0mm 0 W/m2
23:34 38.4 °F /  3.6 °C 35.7 °F /  2.1 °C 29.77in /  1008hPa WSW 0.3mph /  0.5km/h 5mph /  8km/h 90% 0.00in /  0mm 0 W/m2
23:39 38.2 °F /  3.4 °C 35.5 °F /  1.9 °C 29.77in /  1008hPa Calm   4mph /  6.4km/h 89.6% 0.00in /  0mm 0 W/m2
23:44 38.2 °F /  3.4 °C 35.2 °F /  1.8 °C 29.78in /  1008.4hPa Calm   4mph /  6.4km/h 89% 0.00in /  0mm 0 W/m2
23:49 38.1 °F /  3.4 °C 35.2 °F /  1.8 °C 29.77in /  1008hPa WSW 0.8mph /  1.3km/h 4mph /  6.4km/h 89% 0.00in /  0mm 0 W/m2
23:54 38.2 °F /  3.4 °C 35.4 °F /  1.9 °C 29.78in /  1008.4hPa WSW 0.5mph /  0.8km/h 5mph /  8km/h 89.5% 0.00in /  0mm 0 W/m2
23:59 38.2 °F /  3.4 °C 35.3 °F /  1.8 °C 29.77in /  1008hPa WSW 0.4mph /  0.6km/h 5mph /  8km/h 89% 0.00in /  0mm 0 W/m2
Hartford County Weather
Compliments of Weather Underground - 2 mb